Time;durP1;ratioP1;P1;durP2;ratioP2;P2;SDS_P1;SDS_P2;PMS_P1;PMS_P2;Temp;Humidity;BMP_temperature;BMP_pressure;BME280_temperature;BME280_humidity;BME280_pressure;Samples;Min_cycle;Max_cycle;Signal;HPM_P1;HPM_P2
2022/07/07 00:00:07;;;;;;;10.38;7.35;;;16.80;99.90;;;;;;4908905;29;20795;-75
2022/07/07 00:02:33;;;;;;;12.00;8.07;;;16.80;99.90;;;;;;4915260;29;20052;-75
2022/07/07 00:04:59;;;;;;;8.55;6.28;;;16.80;99.90;;;;;;4914234;29;20051;-75
2022/07/07 00:07:25;;;;;;;12.00;7.55;;;16.80;99.90;;;;;;4921904;28;20055;-76
2022/07/07 00:09:51;;;;;;;8.77;7.05;;;16.80;99.90;;;;;;4908785;29;20268;-75
2022/07/07 00:12:17;;;;;;;9.90;6.93;;;16.80;99.90;;;;;;4914288;29;20535;-75
2022/07/07 00:14:43;;;;;;;8.88;6.60;;;16.80;99.90;;;;;;4921417;29;20829;-75
2022/07/07 00:17:10;;;;;;;9.00;6.80;;;16.80;99.90;;;;;;4929292;28;20091;-75
2022/07/07 00:19:36;;;;;;;14.57;8.85;;;16.70;99.90;;;;;;4919278;29;20055;-76
2022/07/07 00:22:01;;;;;;;8.43;5.97;;;16.70;99.90;;;;;;4919716;29;20127;-75
2022/07/07 00:24:27;;;;;;;9.65;6.45;;;16.70;99.90;;;;;;4920578;29;20060;-75
2022/07/07 00:26:53;;;;;;;11.48;6.63;;;16.70;99.90;;;;;;4922260;29;20937;-76
2022/07/07 00:29:18;;;;;;;10.80;6.22;;;16.70;99.90;;;;;;4919230;29;20499;-75
2022/07/07 00:31:44;;;;;;;8.80;6.40;;;16.70;99.90;;;;;;4929853;28;20533;-75
2022/07/07 00:34:10;;;;;;;12.18;6.80;;;16.70;99.90;;;;;;4918797;29;20052;-75
2022/07/07 00:36:39;;;;;;;10.10;5.53;;;16.70;99.90;;;;;;4922892;29;20058;-75
2022/07/07 00:39:05;;;;;;;8.38;6.50;;;16.70;99.90;;;;;;4922825;29;20048;-75
2022/07/07 00:41:30;;;;;;;9.73;7.00;;;16.70;99.90;;;;;;4919649;29;20599;-75
2022/07/07 00:43:56;;;;;;;8.95;6.10;;;16.70;99.90;;;;;;4912303;29;20515;-75
2022/07/07 00:46:22;;;;;;;13.30;6.82;;;16.70;99.90;;;;;;4915214;29;20747;-75
2022/07/07 00:48:48;;;;;;;9.70;6.68;;;16.70;99.90;;;;;;4915312;29;20130;-76
2022/07/07 00:51:14;;;;;;;9.50;6.75;;;16.70;99.90;;;;;;4918333;29;20056;-75
2022/07/07 00:53:40;;;;;;;10.85;6.95;;;16.70;99.90;;;;;;4916435;29;20167;-76
2022/07/07 00:56:07;;;;;;;7.55;5.50;;;16.60;99.90;;;;;;4919133;29;20091;-76
2022/07/07 00:58:37;;;;;;;8.43;5.72;;;16.60;99.90;;;;;;4920729;29;20048;-75
2022/07/07 01:01:04;;;;;;;8.77;6.10;;;16.60;99.90;;;;;;4920896;29;20055;-76
2022/07/07 01:03:29;;;;;;;8.07;6.65;;;16.60;99.90;;;;;;4918771;29;20044;-76
2022/07/07 01:05:57;;;;;;;9.45;6.18;;;16.60;99.90;;;;;;4915053;29;20052;-75
2022/07/07 01:08:23;;;;;;;7.88;5.60;;;16.60;99.90;;;;;;4907573;29;20067;-76
2022/07/07 01:10:48;;;;;;;7.55;5.93;;;16.60;99.90;;;;;;4919736;28;20051;-76
2022/07/07 01:13:14;;;;;;;8.27;5.60;;;16.60;99.90;;;;;;4913883;28;20563;-76
2022/07/07 01:15:40;;;;;;;7.47;5.35;;;16.60;99.90;;;;;;4902154;29;20043;-77
2022/07/07 01:18:08;;;;;;;8.00;4.97;;;16.60;99.90;;;;;;4921391;28;20578;-76
2022/07/07 01:20:38;;;;;;;5.88;3.83;;;16.60;99.90;;;;;;4918478;29;20059;-76
2022/07/07 01:23:04;;;;;;;6.60;3.83;;;16.60;99.90;;;;;;4912080;28;20243;-76
2022/07/07 01:25:30;;;;;;;4.10;3.00;;;16.50;99.90;;;;;;4913328;29;20504;-77
2022/07/07 01:27:55;;;;;;;6.35;4.05;;;16.50;99.90;;;;;;4919169;29;20887;-76
2022/07/07 01:30:21;;;;;;;5.90;3.45;;;16.50;99.90;;;;;;4905758;29;20043;-76
2022/07/07 01:32:47;;;;;;;3.38;3.08;;;16.50;99.90;;;;;;4918158;29;20063;-76
2022/07/07 01:35:12;;;;;;;4.05;3.35;;;16.50;99.90;;;;;;4917232;29;20054;-76
2022/07/07 01:37:38;;;;;;;4.00;3.03;;;16.50;99.90;;;;;;4920850;29;20107;-77
2022/07/07 01:40:05;;;;;;;3.92;2.80;;;16.50;99.90;;;;;;4919344;29;20797;-76
2022/07/07 01:42:30;;;;;;;3.25;2.80;;;16.50;99.90;;;;;;4920349;29;20156;-77
2022/07/07 01:44:56;;;;;;;3.88;3.03;;;16.40;99.90;;;;;;4921356;29;20138;-76
2022/07/07 01:47:23;;;;;;;3.83;2.45;;;16.50;99.90;;;;;;4927549;29;20484;-77
2022/07/07 01:49:50;;;;;;;3.78;2.58;;;16.40;99.90;;;;;;4903282;29;20063;-76
2022/07/07 01:52:16;;;;;;;5.05;2.60;;;16.40;99.90;;;;;;4921136;29;20126;-76
2022/07/07 01:54:42;;;;;;;2.50;2.30;;;16.50;99.90;;;;;;4918238;29;20047;-76
2022/07/07 01:57:09;;;;;;;3.15;2.58;;;16.40;99.90;;;;;;4923174;28;20503;-76
2022/07/07 01:59:37;;;;;;;3.20;2.60;;;16.40;99.90;;;;;;4921029;29;20086;-76
2022/07/07 02:02:03;;;;;;;6.28;3.00;;;16.40;99.90;;;;;;4915070;29;20047;-76
2022/07/07 02:04:29;;;;;;;6.40;3.53;;;16.40;99.90;;;;;;4914949;29;20067;-76
2022/07/07 02:06:55;;;;;;;4.07;3.08;;;16.40;99.90;;;;;;4914980;29;20532;-76
2022/07/07 02:09:21;;;;;;;4.50;3.53;;;16.40;99.90;;;;;;4914377;29;20051;-76
2022/07/07 02:11:47;;;;;;;6.72;3.03;;;16.30;99.90;;;;;;4917722;29;20411;-76
2022/07/07 02:14:12;;;;;;;3.25;2.95;;;16.30;99.90;;;;;;4921332;29;20079;-77
2022/07/07 02:16:38;;;;;;;4.80;3.25;;;16.30;99.90;;;;;;4926149;29;20657;-76
2022/07/07 02:19:06;;;;;;;4.43;2.72;;;16.30;99.90;;;;;;4921609;29;20052;-76
2022/07/07 02:21:32;;;;;;;6.22;4.32;;;16.30;99.90;;;;;;4924226;29;20056;-76
2022/07/07 02:23:58;;;;;;;4.88;2.92;;;16.30;99.90;;;;;;4922832;29;20055;-76
2022/07/07 02:26:25;;;;;;;4.72;3.15;;;16.30;99.90;;;;;;4917612;29;20442;-76
2022/07/07 02:28:51;;;;;;;5.38;3.30;;;16.30;99.90;;;;;;4913446;29;20077;-76
2022/07/07 02:31:16;;;;;;;8.77;3.55;;;16.30;99.90;;;;;;4918840;29;20777;-76
2022/07/07 02:33:43;;;;;;;6.18;3.42;;;16.30;99.90;;;;;;4916930;29;20052;-76
2022/07/07 02:36:09;;;;;;;4.25;3.47;;;16.30;99.90;;;;;;4912625;29;20051;-76
2022/07/07 02:38:37;;;;;;;6.80;4.32;;;16.30;99.90;;;;;;4923354;29;20064;-76
2022/07/07 02:41:04;;;;;;;5.97;3.08;;;16.30;99.90;;;;;;4920330;29;20081;-76
2022/07/07 02:43:29;;;;;;;5.65;3.97;;;16.30;99.90;;;;;;4916794;29;20082;-76
2022/07/07 02:45:55;;;;;;;5.72;3.13;;;16.30;99.90;;;;;;4912605;29;20135;-76
2022/07/07 02:48:23;;;;;;;4.68;3.25;;;16.40;99.90;;;;;;4919256;29;20079;-76
2022/07/07 02:50:50;;;;;;;4.32;3.50;;;16.40;99.90;;;;;;4914540;29;20134;-76
2022/07/07 02:53:17;;;;;;;6.13;3.17;;;16.40;99.90;;;;;;4919284;29;20559;-76
2022/07/07 02:55:43;;;;;;;7.97;3.67;;;16.40;99.90;;;;;;4908307;29;20163;-76
2022/07/07 02:58:11;;;;;;;4.95;4.45;;;16.40;99.90;;;;;;4925521;29;20102;-75
2022/07/07 03:00:38;;;;;;;5.55;3.17;;;16.40;99.90;;;;;;4920519;29;20519;-77
2022/07/07 03:03:06;;;;;;;3.13;2.70;;;16.40;99.90;;;;;;4926353;29;20149;-77
2022/07/07 03:05:32;;;;;;;4.53;2.75;;;16.40;99.90;;;;;;4917095;29;20424;-76
2022/07/07 03:07:58;;;;;;;8.82;3.20;;;16.30;99.90;;;;;;4925390;29;20063;-76
2022/07/07 03:10:24;;;;;;;4.60;2.25;;;16.30;99.90;;;;;;4921748;29;20158;-76
2022/07/07 03:12:50;;;;;;;4.43;2.92;;;16.30;99.90;;;;;;4930679;29;20069;-76
2022/07/07 03:15:16;;;;;;;3.38;2.25;;;16.30;99.90;;;;;;4923231;28;20202;-76
2022/07/07 03:17:43;;;;;;;3.75;2.72;;;16.40;99.90;;;;;;4930193;29;20122;-75
2022/07/07 03:20:14;;;;;;;5.60;2.90;;;16.30;99.90;;;;;;4923089;28;20058;-76
2022/07/07 03:22:41;;;;;;;4.57;2.70;;;16.30;99.90;;;;;;4922093;29;20511;-76
2022/07/07 03:25:08;;;;;;;5.10;2.60;;;16.30;99.90;;;;;;4919529;29;20509;-77
2022/07/07 03:27:34;;;;;;;7.03;2.72;;;16.30;99.90;;;;;;4923262;29;20067;-76
2022/07/07 03:30:00;;;;;;;5.35;2.58;;;16.30;99.90;;;;;;4908621;29;20171;-76
2022/07/07 03:32:26;;;;;;;5.75;2.30;;;16.30;99.90;;;;;;4910777;29;20064;-76
2022/07/07 03:34:52;;;;;;;4.95;2.40;;;16.30;99.90;;;;;;4921402;29;20783;-76
2022/07/07 03:37:18;;;;;;;4.70;1.88;;;16.30;99.90;;;;;;4910715;29;20077;-76
2022/07/07 03:39:43;;;;;;;7.30;4.05;;;16.30;99.90;;;;;;4914251;29;20051;-76
2022/07/07 03:42:09;;;;;;;7.05;2.50;;;16.30;99.90;;;;;;4923112;29;20044;-76
2022/07/07 03:44:35;;;;;;;6.78;2.28;;;16.30;99.90;;;;;;4928665;29;20103;-78
2022/07/07 03:47:01;;;;;;;5.10;2.58;;;16.30;99.90;;;;;;4923361;29;20126;-77
2022/07/07 03:49:27;;;;;;;6.43;2.30;;;16.30;99.90;;;;;;4918024;29;20505;-77
2022/07/07 03:51:52;;;;;;;3.10;2.25;;;16.20;99.90;;;;;;4921016;29;20055;-79
2022/07/07 03:54:18;;;;;;;4.28;2.15;;;16.20;99.90;;;;;;4920144;29;20502;-78
2022/07/07 03:56:44;;;;;;;4.03;2.15;;;16.20;99.90;;;;;;4922595;29;20061;-77
2022/07/07 03:59:10;;;;;;;5.05;1.70;;;16.10;99.90;;;;;;4930117;29;20051;-78
2022/07/07 04:01:36;;;;;;;2.90;1.73;;;16.10;99.90;;;;;;4922831;29;20130;-77
2022/07/07 04:04:04;;;;;;;5.78;1.67;;;16.10;99.90;;;;;;4922287;29;20185;-77
2022/07/07 04:06:31;;;;;;;3.35;2.08;;;16.10;99.90;;;;;;4921595;29;20443;-77
2022/07/07 04:08:57;;;;;;;5.25;1.67;;;16.10;99.90;;;;;;4918006;29;20055;-76
2022/07/07 04:11:23;;;;;;;4.95;1.30;;;16.00;99.90;;;;;;4916871;29;20056;-77
2022/07/07 04:13:49;;;;;;;3.65;1.90;;;16.00;99.90;;;;;;4922338;29;20083;-77
2022/07/07 04:16:14;;;;;;;3.63;1.25;;;16.00;99.90;;;;;;4921362;29;20043;-76
2022/07/07 04:18:40;;;;;;;4.35;1.65;;;16.00;99.90;;;;;;4920295;29;20569;-77
2022/07/07 04:21:06;;;;;;;2.97;1.67;;;16.00;99.90;;;;;;4924601;29;20077;-76
2022/07/07 04:23:32;;;;;;;4.22;1.80;;;15.90;99.90;;;;;;4928487;29;20142;-77
2022/07/07 04:25:57;;;;;;;5.55;1.40;;;15.90;99.90;;;;;;4920230;29;20244;-77
2022/07/07 04:28:23;;;;;;;2.50;1.55;;;15.90;99.90;;;;;;4914866;29;20114;-77
2022/07/07 04:30:49;;;;;;;6.18;2.30;;;15.90;99.90;;;;;;4919125;29;20134;-76
2022/07/07 04:33:14;;;;;;;2.40;1.63;;;15.90;99.90;;;;;;4916502;29;20150;-77
2022/07/07 04:35:40;;;;;;;4.60;1.88;;;15.90;99.90;;;;;;4921072;29;20067;-77
2022/07/07 04:38:06;;;;;;;2.40;1.52;;;15.90;99.90;;;;;;4921938;29;20055;-76
2022/07/07 04:40:32;;;;;;;3.65;2.08;;;15.80;99.90;;;;;;4924965;29;20091;-77
2022/07/07 04:42:57;;;;;;;10.75;1.83;;;15.90;99.90;;;;;;4908439;29;20052;-77
2022/07/07 04:45:23;;;;;;;3.42;1.80;;;15.80;99.90;;;;;;4919024;29;20055;-77
2022/07/07 04:47:49;;;;;;;4.90;1.65;;;15.80;99.90;;;;;;4914421;29;20051;-77
2022/07/07 04:50:15;;;;;;;5.32;1.90;;;15.80;99.90;;;;;;4920965;28;20146;-77
2022/07/07 04:52:41;;;;;;;5.85;1.88;;;15.80;99.90;;;;;;4919846;29;20054;-77
2022/07/07 04:55:08;;;;;;;6.63;2.15;;;15.80;99.90;;;;;;4920563;29;20047;-77
2022/07/07 04:57:34;;;;;;;6.93;1.85;;;15.90;99.90;;;;;;4927283;29;20102;-76
2022/07/07 05:00:00;;;;;;;3.10;1.42;;;15.80;99.90;;;;;;4912499;28;20158;-77
2022/07/07 05:02:25;;;;;;;4.45;2.28;;;15.90;99.90;;;;;;4913455;29;20055;-76
2022/07/07 05:04:51;;;;;;;3.97;1.73;;;15.90;99.90;;;;;;4920299;29;20047;-77
2022/07/07 05:07:18;;;;;;;7.07;2.60;;;15.90;99.90;;;;;;4913680;29;20039;-76
2022/07/07 05:09:44;;;;;;;4.95;1.45;;;16.00;99.90;;;;;;4920362;29;20067;-76
2022/07/07 05:12:10;;;;;;;4.70;1.95;;;16.00;99.90;;;;;;4918581;29;20048;-76
2022/07/07 05:14:36;;;;;;;3.63;1.35;;;16.10;99.90;;;;;;4911592;29;20044;-76
2022/07/07 05:17:02;;;;;;;3.83;2.42;;;16.20;99.90;;;;;;4918402;28;20090;-76
2022/07/07 05:19:27;;;;;;;3.30;1.70;;;16.10;99.90;;;;;;4921009;29;20051;-76
2022/07/07 05:21:53;;;;;;;3.25;1.20;;;16.10;99.90;;;;;;4929666;29;20058;-76
2022/07/07 05:24:19;;;;;;;4.90;2.28;;;16.10;99.90;;;;;;4920243;29;20503;-75
2022/07/07 05:26:45;;;;;;;2.40;1.58;;;16.00;99.90;;;;;;4915796;29;20130;-76
2022/07/07 05:29:11;;;;;;;6.93;1.70;;;16.00;99.90;;;;;;4904693;29;20052;-75
2022/07/07 05:31:37;;;;;;;8.10;1.70;;;16.00;99.90;;;;;;4920140;29;20130;-76
2022/07/07 05:34:03;;;;;;;4.75;1.60;;;15.90;99.90;;;;;;4912166;29;20308;-76
2022/07/07 05:36:29;;;;;;;4.63;1.67;;;15.80;99.90;;;;;;4918230;29;20044;-76
2022/07/07 05:38:55;;;;;;;4.50;2.35;;;15.70;99.90;;;;;;4903385;29;20063;-76
2022/07/07 05:41:21;;;;;;;4.88;1.73;;;15.70;99.90;;;;;;4914013;29;20063;-76
2022/07/07 05:43:48;;;;;;;9.13;2.42;;;15.70;99.90;;;;;;4912302;29;20051;-76
2022/07/07 05:46:14;;;;;;;4.03;2.05;;;15.70;99.90;;;;;;4918609;29;20055;-76
2022/07/07 05:48:39;;;;;;;3.95;1.80;;;15.70;99.90;;;;;;4919711;29;20086;-76
2022/07/07 05:51:05;;;;;;;11.45;2.40;;;15.70;99.90;;;;;;4918232;29;20154;-75
2022/07/07 05:53:31;;;;;;;6.78;2.40;;;15.70;99.90;;;;;;4919764;29;20478;-75
2022/07/07 05:55:57;;;;;;;3.78;1.67;;;15.70;99.90;;;;;;4916593;29;20652;-75
2022/07/07 05:58:23;;;;;;;5.18;2.55;;;15.80;99.90;;;;;;4921403;29;20139;-75
2022/07/07 06:00:50;;;;;;;5.47;1.77;;;15.80;99.90;;;;;;4920446;28;20052;-75
2022/07/07 06:03:16;;;;;;;6.95;2.13;;;15.90;99.90;;;;;;4914426;29;20062;-75
2022/07/07 06:05:43;;;;;;;5.53;1.77;;;15.90;99.90;;;;;;4907427;29;20118;-75
2022/07/07 06:08:09;;;;;;;3.90;2.25;;;15.90;99.90;;;;;;4909756;29;20048;-75
2022/07/07 06:10:36;;;;;;;12.13;2.50;;;15.90;99.90;;;;;;4916322;29;20907;-75
2022/07/07 06:13:02;;;;;;;3.35;1.95;;;16.00;99.90;;;;;;4914828;29;20854;-75
2022/07/07 06:15:27;;;;;;;2.53;1.77;;;16.10;99.90;;;;;;4922922;29;20110;-75
2022/07/07 06:17:54;;;;;;;11.85;2.05;;;16.10;99.90;;;;;;4920336;29;20127;-75
2022/07/07 06:20:20;;;;;;;7.20;2.15;;;16.10;99.90;;;;;;4918277;28;20052;-75
2022/07/07 06:22:46;;;;;;;6.40;2.67;;;16.10;99.90;;;;;;4907915;29;20044;-76
2022/07/07 06:25:11;;;;;;;3.83;1.58;;;16.10;99.90;;;;;;4911316;29;20526;-76
2022/07/07 06:27:37;;;;;;;4.53;1.77;;;16.20;99.90;;;;;;4920032;29;20154;-75
2022/07/07 06:30:05;;;;;;;6.03;1.88;;;16.40;99.90;;;;;;4924004;29;20052;-75
2022/07/07 06:32:31;;;;;;;3.88;1.75;;;17.30;99.90;;;;;;4919816;29;20074;-74
2022/07/07 06:34:57;;;;;;;6.47;1.77;;;18.00;99.90;;;;;;4921337;29;20080;-75
2022/07/07 06:37:23;;;;;;;7.70;1.52;;;18.90;99.90;;;;;;4920415;29;20523;-76
2022/07/07 06:39:49;;;;;;;4.30;1.48;;;20.20;99.90;;;;;;4916231;29;20103;-76
2022/07/07 06:42:16;;;;;;;5.35;1.65;;;21.00;99.90;;;;;;4911456;29;20239;-76
2022/07/07 06:44:42;;;;;;;5.72;1.77;;;21.80;99.90;;;;;;4919418;29;20110;-76
2022/07/07 06:47:07;;;;;;;2.08;1.42;;;22.00;99.90;;;;;;4906614;29;20975;-76
2022/07/07 06:49:33;;;;;;;4.18;1.20;;;21.70;99.90;;;;;;4918530;29;20063;-75
2022/07/07 06:51:59;;;;;;;3.00;1.30;;;20.90;99.90;;;;;;4919086;29;20150;-76
2022/07/07 06:54:25;;;;;;;6.13;1.50;;;20.20;99.90;;;;;;4913468;29;20127;-76
2022/07/07 06:56:51;;;;;;;6.78;1.80;;;19.60;99.90;;;;;;4915828;28;20128;-76
2022/07/07 06:59:16;;;;;;;3.10;1.40;;;19.00;99.90;;;;;;4918859;29;20073;-75
2022/07/07 07:01:42;;;;;;;4.05;1.13;;;18.40;99.90;;;;;;4922429;29;20492;-76
2022/07/07 07:04:09;;;;;;;5.43;1.65;;;17.90;99.90;;;;;;4923833;29;20134;-76
2022/07/07 07:06:36;;;;;;;5.18;1.65;;;17.70;99.90;;;;;;4923861;29;20060;-76
2022/07/07 07:09:02;;;;;;;3.58;1.40;;;17.90;99.90;;;;;;4906617;29;20051;-75
2022/07/07 07:11:28;;;;;;;4.13;1.10;;;17.90;99.90;;;;;;4906095;29;20552;-75
2022/07/07 07:13:56;;;;;;;1.88;1.00;;;17.70;99.90;;;;;;4915765;29;20055;-75
2022/07/07 07:16:21;;;;;;;5.63;1.10;;;17.50;99.90;;;;;;4905096;29;20048;-75
2022/07/07 07:18:47;;;;;;;2.22;0.98;;;17.40;99.90;;;;;;4904642;29;20072;-76
2022/07/07 07:21:13;;;;;;;3.47;1.00;;;17.50;99.90;;;;;;4916654;29;20098;-76
2022/07/07 07:23:40;;;;;;;1.90;0.80;;;18.00;99.90;;;;;;4916214;29;20464;-76
2022/07/07 07:26:07;;;;;;;0.80;0.80;;;18.50;99.90;;;;;;4916003;29;20048;-75
2022/07/07 07:28:33;;;;;;;3.40;0.98;;;18.40;99.90;;;;;;4910620;29;20093;-76
2022/07/07 07:31:00;;;;;;;1.02;0.77;;;18.10;99.90;;;;;;4920173;29;20067;-75
2022/07/07 07:33:26;;;;;;;2.78;0.98;;;17.90;99.90;;;;;;4920185;29;20522;-75
2022/07/07 07:35:52;;;;;;;0.60;0.60;;;17.70;99.90;;;;;;4910039;29;20052;-75
2022/07/07 07:38:17;;;;;;;1.33;0.65;;;17.70;99.90;;;;;;4923452;29;20070;-75
2022/07/07 07:40:43;;;;;;;1.33;0.60;;;18.00;99.90;;;;;;4921592;29;20047;-74
2022/07/07 07:43:09;;;;;;;1.20;0.52;;;18.40;99.90;;;;;;4902721;29;20551;-75
2022/07/07 07:45:35;;;;;;;4.18;0.80;;;19.00;99.90;;;;;;4927796;29;20051;-75
2022/07/07 07:48:04;;;;;;;0.95;0.57;;;19.60;99.90;;;;;;4915481;29;20126;-75
2022/07/07 07:50:30;;;;;;;3.03;0.98;;;20.00;99.90;;;;;;4929574;28;20055;-75
2022/07/07 07:52:57;;;;;;;2.60;0.90;;;19.80;99.90;;;;;;4916683;28;20052;-75
2022/07/07 07:55:23;;;;;;;1.58;0.70;;;19.60;99.90;;;;;;4915943;29;20094;-75
2022/07/07 07:57:50;;;;;;;3.47;1.02;;;19.30;99.90;;;;;;4917622;29;20056;-75
2022/07/07 08:00:18;;;;;;;4.18;1.00;;;19.20;99.90;;;;;;4914911;29;20055;-75
2022/07/07 08:02:45;;;;;;;3.28;1.00;;;18.80;99.90;;;;;;4910295;29;20051;-76
2022/07/07 08:05:11;;;;;;;1.65;0.93;;;18.20;99.90;;;;;;4911896;29;20131;-77
2022/07/07 08:07:38;;;;;;;1.38;0.90;;;17.90;99.90;;;;;;4914905;28;20104;-76
2022/07/07 08:10:04;;;;;;;1.83;0.80;;;17.50;99.90;;;;;;4914652;29;20054;-76
2022/07/07 08:12:30;;;;;;;1.48;0.70;;;17.50;99.90;;;;;;4918962;29;20940;-76
2022/07/07 08:14:55;;;;;;;4.18;1.10;;;17.40;99.90;;;;;;4921037;29;20059;-76
2022/07/07 08:17:21;;;;;;;3.72;1.05;;;17.40;99.90;;;;;;4926986;29;20047;-76
2022/07/07 08:19:47;;;;;;;3.75;1.10;;;17.70;99.90;;;;;;4919321;29;20752;-75
2022/07/07 08:22:13;;;;;;;3.08;1.00;;;18.10;99.90;;;;;;4916089;29;20159;-76
2022/07/07 08:24:39;;;;;;;1.00;0.75;;;18.20;99.90;;;;;;4921765;29;20056;-76
2022/07/07 08:27:05;;;;;;;2.75;1.05;;;18.20;99.90;;;;;;4921274;29;20051;-76
2022/07/07 08:29:31;;;;;;;7.57;1.40;;;18.00;99.90;;;;;;4918803;29;20051;-76
2022/07/07 08:31:57;;;;;;;4.15;1.25;;;17.70;99.90;;;;;;4917868;29;20055;-75
2022/07/07 08:34:23;;;;;;;2.67;1.15;;;17.80;99.90;;;;;;4918448;29;20044;-75
2022/07/07 08:36:48;;;;;;;4.00;1.00;;;18.40;99.90;;;;;;4915021;29;20173;-75
2022/07/07 08:39:14;;;;;;;6.60;1.77;;;18.80;99.90;;;;;;4927640;29;20062;-75
2022/07/07 08:41:41;;;;;;;2.83;1.25;;;18.90;99.90;;;;;;4916514;29;20058;-76
2022/07/07 08:44:07;;;;;;;2.80;1.38;;;18.80;99.90;;;;;;4920330;29;20134;-75
2022/07/07 08:46:33;;;;;;;4.25;1.33;;;18.50;99.90;;;;;;4918258;29;20641;-76
2022/07/07 08:48:59;;;;;;;3.28;1.02;;;18.40;99.90;;;;;;4922885;28;20174;-76
2022/07/07 08:51:25;;;;;;;2.72;1.33;;;18.30;99.90;;;;;;4927749;29;20107;-76
2022/07/07 08:53:51;;;;;;;4.63;1.15;;;18.40;99.90;;;;;;4924463;28;20047;-75
2022/07/07 08:56:19;;;;;;;6.15;1.65;;;18.30;99.90;;;;;;4925740;29;20169;-76
2022/07/07 08:58:45;;;;;;;2.38;1.30;;;18.50;99.90;;;;;;4923731;29;20572;-76
2022/07/07 09:01:12;;;;;;;2.47;1.33;;;18.50;99.90;;;;;;4921453;29;20656;-76
2022/07/07 09:03:38;;;;;;;3.22;1.63;;;18.60;99.90;;;;;;4935756;28;20050;-76
2022/07/07 09:06:04;;;;;;;2.70;1.20;;;18.60;99.90;;;;;;4916989;28;20443;-77
2022/07/07 09:08:31;;;;;;;4.80;1.77;;;18.60;99.90;;;;;;4907221;29;20052;-76
2022/07/07 09:10:57;;;;;;;6.28;1.58;;;18.60;99.90;;;;;;4902329;29;20058;-75
2022/07/07 09:13:32;;;;;;;3.00;1.60;;;19.40;99.90;;;;;;4912601;29;20055;-76
2022/07/07 09:16:04;;;;;;;3.60;1.55;;;19.50;99.90;;;;;;4911118;29;20054;-75
2022/07/07 09:18:40;;;;;;;3.40;1.52;;;19.20;99.90;;;;;;4917891;29;20109;-76
2022/07/07 09:21:26;;;;;;;3.70;1.70;;;18.80;99.90;;;;;;4901744;29;20055;-75
2022/07/07 09:23:53;;;;;;;1.65;1.10;;;18.40;99.90;;;;;;4906737;29;20043;-76
2022/07/07 09:26:43;;;;;;;2.20;1.38;;;18.20;99.90;;;;;;4918828;29;20130;-75
2022/07/07 09:29:11;;;;;;;2.58;0.90;;;18.00;99.90;;;;;;4912411;29;20063;-76
2022/07/07 09:32:06;;;;;;;1.88;1.02;;;17.90;99.90;;;;;;4920436;29;20591;-76
2022/07/07 09:34:34;;;;;;;2.10;1.05;;;18.00;99.90;;;;;;4922947;28;20059;-76
2022/07/07 09:39:49;;;;;;;3.20;1.13;;;18.90;99.90;;;;;;4920627;29;20054;-76
2022/07/07 09:42:32;;;;;;;5.18;1.40;;;18.70;99.90;;;;;;4909098;29;20055;-75
2022/07/07 09:45:04;;;;;;;2.42;1.10;;;18.40;99.90;;;;;;4922685;28;20044;-76
2022/07/07 09:47:30;;;;;;;4.05;1.15;;;18.40;99.90;;;;;;4915599;29;20063;-76
2022/07/07 09:50:03;;;;;;;3.03;1.58;;;18.60;99.90;;;;;;4923755;29;20408;-76
2022/07/07 09:52:31;;;;;;;1.88;1.10;;;18.70;99.90;;;;;;4911018;29;20139;-76
2022/07/07 09:54:58;;;;;;;4.68;1.80;;;18.90;99.90;;;;;;4913181;29;20575;-76
2022/07/07 09:57:25;;;;;;;6.32;1.75;;;18.90;99.90;;;;;;4921764;29;20054;-75
2022/07/07 09:59:51;;;;;;;5.68;1.73;;;18.80;99.90;;;;;;4916151;28;20052;-76
2022/07/07 10:02:25;;;;;;;6.25;1.48;;;18.40;99.90;;;;;;4913940;29;20055;-76
2022/07/07 10:04:56;;;;;;;2.95;1.30;;;18.30;99.90;;;;;;4914618;29;20940;-76
2022/07/07 10:07:24;;;;;;;5.07;1.52;;;18.10;99.90;;;;;;4922020;29;20048;-76
2022/07/07 10:09:55;;;;;;;6.30;1.92;;;17.90;99.90;;;;;;4917885;29;20151;-76
2022/07/07 10:12:25;;;;;;;3.88;1.75;;;17.80;99.90;;;;;;4932562;29;20483;-76
2022/07/07 10:15:00;;;;;;;2.42;1.13;;;17.90;99.90;;;;;;4924146;28;20046;-76
2022/07/07 10:17:27;;;;;;;1.80;1.13;;;17.80;99.90;;;;;;4919848;29;20067;-75
2022/07/07 10:19:53;;;;;;;2.03;1.42;;;17.90;99.90;;;;;;4924175;29;20121;-76
2022/07/07 10:22:21;;;;;;;5.90;1.50;;;18.30;99.90;;;;;;4919404;29;20055;-76
2022/07/07 10:24:47;;;;;;;3.72;1.10;;;18.40;99.90;;;;;;4916691;29;21046;-76
2022/07/07 10:27:15;;;;;;;6.95;1.30;;;18.70;99.90;;;;;;4921495;29;20051;-75
2022/07/07 10:29:42;;;;;;;4.75;1.30;;;18.50;99.90;;;;;;4907697;28;20048;-76
2022/07/07 10:32:50;;;;;;;3.50;1.08;;;18.20;99.90;;;;;;4920362;29;20854;-76
2022/07/07 10:35:17;;;;;;;7.07;1.90;;;18.10;99.90;;;;;;4925167;29;20044;-76
2022/07/07 10:37:49;;;;;;;3.80;2.00;;;18.00;99.90;;;;;;4918280;29;20131;-76
2022/07/07 10:40:29;;;;;;;5.40;2.13;;;17.80;99.90;;;;;;4922825;29;20077;-75
2022/07/07 10:43:25;;;;;;;4.22;2.05;;;17.60;99.90;;;;;;4922286;29;20081;-76
2022/07/07 10:45:53;;;;;;;3.08;2.10;;;17.30;99.90;;;;;;4919091;29;20047;-76
2022/07/07 10:48:45;;;;;;;6.97;3.30;;;17.20;99.90;;;;;;4920740;29;20498;-75
2022/07/07 10:51:17;;;;;;;6.78;2.72;;;17.10;99.90;;;;;;4914461;29;20777;-75
2022/07/07 10:53:57;;;;;;;9.68;2.70;;;17.10;99.90;;;;;;4921188;29;20055;-75
2022/07/07 10:56:24;;;;;;;11.35;3.38;;;17.30;99.90;;;;;;4913559;29;20048;-75
2022/07/07 10:58:55;;;;;;;10.43;2.67;;;17.30;99.90;;;;;;4920504;29;20484;-75
2022/07/07 11:01:23;;;;;;;5.55;2.50;;;17.20;99.90;;;;;;4919372;29;20056;-76
2022/07/07 11:03:48;;;;;;;8.93;2.50;;;17.40;99.90;;;;;;4915818;29;20057;-75
2022/07/07 11:06:14;;;;;;;7.38;2.83;;;17.50;99.90;;;;;;4926561;29;20060;-75
2022/07/07 11:08:40;;;;;;;8.10;2.67;;;17.40;99.90;;;;;;4918203;29;20064;-75
2022/07/07 11:11:07;;;;;;;6.78;2.65;;;17.50;99.90;;;;;;4910591;28;20071;-75
2022/07/07 11:13:38;;;;;;;7.38;2.78;;;17.70;99.90;;;;;;4907217;29;20122;-75
2022/07/07 11:16:21;;;;;;;9.70;2.85;;;17.90;99.90;;;;;;4912131;29;20092;-75
2022/07/07 11:18:50;;;;;;;10.57;2.55;;;17.90;99.90;;;;;;4916291;29;20058;-75
2022/07/07 11:21:16;;;;;;;6.13;2.47;;;18.20;99.90;;;;;;4922761;29;20048;-76
2022/07/07 11:23:56;;;;;;;8.45;2.50;;;18.20;99.90;;;;;;4911926;29;20149;-76
2022/07/07 11:26:24;;;;;;;3.33;2.50;;;18.00;99.90;;;;;;4919378;29;20064;-75
2022/07/07 11:28:57;;;;;;;4.85;2.33;;;17.90;99.90;;;;;;4915211;29;20054;-75
2022/07/07 11:31:23;;;;;;;;;;;17.80;99.90;;;;;;4923932;29;20095;-75
2022/07/07 11:33:54;;;;;;;6.15;2.25;;;17.80;99.90;;;;;;4928801;29;19945;-75
2022/07/07 11:36:24;;;;;;;7.03;3.10;;;17.80;99.90;;;;;;4920053;29;20090;-75
2022/07/07 11:38:54;;;;;;;6.10;2.20;;;17.70;99.90;;;;;;4910641;28;20092;-75
2022/07/07 11:41:20;;;;;;;8.43;2.97;;;17.60;99.90;;;;;;4932953;29;20059;-76
2022/07/07 11:43:54;;;;;;;8.38;3.10;;;17.50;99.90;;;;;;4908432;28;20051;-75
2022/07/07 11:46:22;;;;;;;10.93;2.20;;;17.50;99.90;;;;;;4918432;29;20050;-75
2022/07/07 11:48:48;;;;;;;5.10;2.53;;;17.50;99.90;;;;;;4919606;29;20234;-76
2022/07/07 11:51:14;;;;;;;10.05;2.50;;;17.50;99.90;;;;;;4929627;28;20978;-75
2022/07/07 11:53:39;;;;;;;10.50;2.22;;;17.90;99.90;;;;;;4910077;29;20849;-76
2022/07/07 11:56:06;;;;;;;8.25;2.45;;;18.00;99.90;;;;;;4915447;29;20035;-75
2022/07/07 11:58:32;;;;;;;8.50;2.67;;;18.10;99.30;;;;;;4927921;29;20055;-76
2022/07/07 12:00:59;;;;;;;4.90;1.65;;;18.30;99.90;;;;;;4928944;29;20146;-75
2022/07/07 12:03:32;;;;;;;4.28;1.75;;;18.50;99.90;;;;;;4925842;29;20086;-77
2022/07/07 12:05:57;;;;;;;;;;;18.60;97.40;;;;;;4919025;29;20130;-75
2022/07/07 12:08:32;;;;;;;6.47;1.85;;;18.70;97.10;;;;;;4929970;29;19926;-75
2022/07/07 12:10:57;;;;;;;8.43;3.20;;;18.60;97.70;;;;;;4919859;29;20075;-76
2022/07/07 12:13:25;;;;;;;8.25;1.95;;;18.80;99.50;;;;;;4919776;29;20099;-75
2022/07/07 12:15:53;;;;;;;3.03;1.52;;;18.80;97.70;;;;;;4929186;29;20080;-75
2022/07/07 12:18:32;;;;;;;3.03;1.90;;;18.70;96.90;;;;;;4925369;28;20094;-75
2022/07/07 12:21:03;;;;;;;5.25;2.15;;;18.60;96.70;;;;;;4931667;29;20052;-75
2022/07/07 12:23:29;;;;;;;7.32;2.40;;;18.70;97.00;;;;;;4920901;29;20107;-76
2022/07/07 12:26:10;;;;;;;7.72;2.33;;;18.80;98.40;;;;;;4909300;28;20063;-76
2022/07/07 12:28:36;;;;;;;11.48;2.78;;;18.60;98.10;;;;;;4912766;29;20055;-76
2022/07/07 12:31:04;;;;;;;5.50;2.35;;;18.30;99.80;;;;;;4922659;29;20403;-76
2022/07/07 12:33:39;;;;;;;6.88;2.80;;;18.10;99.90;;;;;;4928994;29;20067;-76
2022/07/07 12:36:22;;;;;;;9.60;2.60;;;17.90;99.90;;;;;;4909089;29;20064;-76
2022/07/07 12:38:57;;;;;;;10.50;2.75;;;17.90;99.90;;;;;;4932447;29;20047;-76
2022/07/07 12:41:28;;;;;;;10.63;3.03;;;17.90;99.90;;;;;;4908443;29;20048;-75
2022/07/07 12:43:56;;;;;;;5.47;2.75;;;17.90;99.90;;;;;;4903912;29;20071;-76
2022/07/07 12:46:32;;;;;;;5.40;2.38;;;18.10;99.90;;;;;;4920700;29;20791;-76
2022/07/07 12:48:59;;;;;;;6.97;2.92;;;18.40;99.90;;;;;;4914620;29;20043;-76